sensor_id;sensor_type;location;lat;lon;timestamp;P1;durP1;ratioP1;P2;durP2;ratioP2
24685;SDS011;12804;51.176;4.452;2023-02-23T00:02:15;76.70;;;45.70;;
24685;SDS011;12804;51.176;4.452;2023-02-23T00:04:41;76.97;;;46.60;;
24685;SDS011;12804;51.176;4.452;2023-02-23T00:07:07;82.88;;;46.17;;
24685;SDS011;12804;51.176;4.452;2023-02-23T00:09:34;78.60;;;45.38;;
24685;SDS011;12804;51.176;4.452;2023-02-23T00:12:00;78.25;;;46.00;;
24685;SDS011;12804;51.176;4.452;2023-02-23T00:14:32;81.43;;;46.25;;
24685;SDS011;12804;51.176;4.452;2023-02-23T00:16:59;76.20;;;44.45;;
24685;SDS011;12804;51.176;4.452;2023-02-23T00:19:25;79.18;;;44.95;;
24685;SDS011;12804;51.176;4.452;2023-02-23T00:21:51;78.43;;;45.10;;
24685;SDS011;12804;51.176;4.452;2023-02-23T00:24:18;80.40;;;45.30;;
24685;SDS011;12804;51.176;4.452;2023-02-23T00:26:45;84.85;;;46.58;;
24685;SDS011;12804;51.176;4.452;2023-02-23T00:29:13;97.22;;;47.50;;
24685;SDS011;12804;51.176;4.452;2023-02-23T00:31:42;94.47;;;45.75;;
24685;SDS011;12804;51.176;4.452;2023-02-23T00:34:09;101.47;;;46.40;;
24685;SDS011;12804;51.176;4.452;2023-02-23T00:36:35;101.57;;;46.75;;
24685;SDS011;12804;51.176;4.452;2023-02-23T00:39:05;95.13;;;45.25;;
24685;SDS011;12804;51.176;4.452;2023-02-23T00:41:45;100.80;;;46.70;;
24685;SDS011;12804;51.176;4.452;2023-02-23T00:44:12;102.05;;;47.17;;
24685;SDS011;12804;51.176;4.452;2023-02-23T00:46:40;95.05;;;45.72;;
24685;SDS011;12804;51.176;4.452;2023-02-23T00:49:07;94.85;;;45.13;;
24685;SDS011;12804;51.176;4.452;2023-02-23T00:51:35;93.18;;;44.65;;
24685;SDS011;12804;51.176;4.452;2023-02-23T00:54:01;96.07;;;45.53;;
24685;SDS011;12804;51.176;4.452;2023-02-23T00:56:28;92.20;;;43.97;;
24685;SDS011;12804;51.176;4.452;2023-02-23T00:58:55;87.10;;;42.53;;
24685;SDS011;12804;51.176;4.452;2023-02-23T01:01:24;90.88;;;43.30;;
24685;SDS011;12804;51.176;4.452;2023-02-23T01:03:50;86.18;;;41.78;;
24685;SDS011;12804;51.176;4.452;2023-02-23T01:06:17;92.22;;;44.20;;
24685;SDS011;12804;51.176;4.452;2023-02-23T01:08:44;90.43;;;43.80;;
24685;SDS011;12804;51.176;4.452;2023-02-23T01:11:16;89.95;;;43.97;;
24685;SDS011;12804;51.176;4.452;2023-02-23T01:13:46;82.78;;;42.20;;
24685;SDS011;12804;51.176;4.452;2023-02-23T01:16:14;88.15;;;42.67;;
24685;SDS011;12804;51.176;4.452;2023-02-23T01:18:42;84.90;;;41.65;;
24685;SDS011;12804;51.176;4.452;2023-02-23T01:21:15;87.22;;;42.28;;
24685;SDS011;12804;51.176;4.452;2023-02-23T01:23:44;87.82;;;41.60;;
24685;SDS011;12804;51.176;4.452;2023-02-23T01:26:14;86.57;;;41.95;;
24685;SDS011;12804;51.176;4.452;2023-02-23T01:28:53;83.13;;;43.03;;
24685;SDS011;12804;51.176;4.452;2023-02-23T01:31:23;91.60;;;44.03;;
24685;SDS011;12804;51.176;4.452;2023-02-23T01:33:53;81.65;;;41.92;;
24685;SDS011;12804;51.176;4.452;2023-02-23T01:36:23;77.97;;;41.45;;
24685;SDS011;12804;51.176;4.452;2023-02-23T01:38:50;74.05;;;38.78;;
24685;SDS011;12804;51.176;4.452;2023-02-23T01:41:20;70.68;;;36.83;;
24685;SDS011;12804;51.176;4.452;2023-02-23T01:46:29;69.70;;;35.15;;
24685;SDS011;12804;51.176;4.452;2023-02-23T01:49:27;70.55;;;35.72;;
24685;SDS011;12804;51.176;4.452;2023-02-23T01:51:54;68.88;;;33.38;;
24685;SDS011;12804;51.176;4.452;2023-02-23T01:54:53;70.07;;;34.28;;
24685;SDS011;12804;51.176;4.452;2023-02-23T01:57:21;71.93;;;34.65;;
24685;SDS011;12804;51.176;4.452;2023-02-23T01:59:49;84.70;;;34.88;;
24685;SDS011;12804;51.176;4.452;2023-02-23T02:02:20;74.65;;;33.28;;
24685;SDS011;12804;51.176;4.452;2023-02-23T02:04:51;75.75;;;31.98;;
24685;SDS011;12804;51.176;4.452;2023-02-23T02:07:24;75.72;;;32.58;;
24685;SDS011;12804;51.176;4.452;2023-02-23T02:09:53;76.10;;;32.00;;
24685;SDS011;12804;51.176;4.452;2023-02-23T02:12:45;74.45;;;31.27;;
24685;SDS011;12804;51.176;4.452;2023-02-23T02:15:17;69.05;;;30.38;;
24685;SDS011;12804;51.176;4.452;2023-02-23T02:29:18;57.97;;;27.27;;
24685;SDS011;12804;51.176;4.452;2023-02-23T02:38:01;52.88;;;26.63;;
24685;SDS011;12804;51.176;4.452;2023-02-23T02:40:44;52.08;;;25.73;;
24685;SDS011;12804;51.176;4.452;2023-02-23T02:46:09;48.72;;;23.77;;
24685;SDS011;12804;51.176;4.452;2023-02-23T02:52:08;46.58;;;23.52;;
24685;SDS011;12804;51.176;4.452;2023-02-23T02:54:30;47.42;;;24.00;;
24685;SDS011;12804;51.176;4.452;2023-02-23T02:57:02;44.92;;;24.13;;
24685;SDS011;12804;51.176;4.452;2023-02-23T02:59:30;53.00;;;26.75;;
24685;SDS011;12804;51.176;4.452;2023-02-23T03:02:24;51.78;;;26.13;;
24685;SDS011;12804;51.176;4.452;2023-02-23T03:05:17;51.47;;;26.73;;
24685;SDS011;12804;51.176;4.452;2023-02-23T03:11:13;56.85;;;28.77;;
24685;SDS011;12804;51.176;4.452;2023-02-23T03:14:21;53.85;;;27.75;;
24685;SDS011;12804;51.176;4.452;2023-02-23T03:26:20;69.55;;;32.20;;
24685;SDS011;12804;51.176;4.452;2023-02-23T03:33:04;67.15;;;31.02;;
24685;SDS011;12804;51.176;4.452;2023-02-23T03:35:49;68.43;;;32.58;;
24685;SDS011;12804;51.176;4.452;2023-02-23T03:38:44;67.75;;;31.88;;
24685;SDS011;12804;51.176;4.452;2023-02-23T03:41:49;71.10;;;33.53;;
24685;SDS011;12804;51.176;4.452;2023-02-23T03:44:38;72.43;;;34.08;;
24685;SDS011;12804;51.176;4.452;2023-02-23T03:47:26;76.55;;;36.65;;
24685;SDS011;12804;51.176;4.452;2023-02-23T03:50:26;79.90;;;36.25;;
24685;SDS011;12804;51.176;4.452;2023-02-23T03:53:17;81.43;;;37.15;;
24685;SDS011;12804;51.176;4.452;2023-02-23T03:56:07;79.72;;;37.28;;
24685;SDS011;12804;51.176;4.452;2023-02-23T03:58:55;82.50;;;37.08;;
24685;SDS011;12804;51.176;4.452;2023-02-23T04:01:42;83.68;;;38.72;;
24685;SDS011;12804;51.176;4.452;2023-02-23T04:04:27;75.45;;;36.80;;
24685;SDS011;12804;51.176;4.452;2023-02-23T04:07:13;77.95;;;37.10;;
24685;SDS011;12804;51.176;4.452;2023-02-23T04:10:00;76.25;;;36.30;;
24685;SDS011;12804;51.176;4.452;2023-02-23T04:12:49;83.85;;;38.55;;
24685;SDS011;12804;51.176;4.452;2023-02-23T04:15:46;78.82;;;36.40;;
24685;SDS011;12804;51.176;4.452;2023-02-23T04:18:15;77.90;;;37.53;;
24685;SDS011;12804;51.176;4.452;2023-02-23T04:20:45;78.90;;;38.20;;
24685;SDS011;12804;51.176;4.452;2023-02-23T04:23:11;71.00;;;35.75;;
24685;SDS011;12804;51.176;4.452;2023-02-23T04:25:37;74.32;;;36.53;;
24685;SDS011;12804;51.176;4.452;2023-02-23T04:28:03;77.43;;;37.10;;
24685;SDS011;12804;51.176;4.452;2023-02-23T04:30:29;80.55;;;37.53;;
24685;SDS011;12804;51.176;4.452;2023-02-23T04:32:55;77.25;;;36.33;;
24685;SDS011;12804;51.176;4.452;2023-02-23T04:35:22;80.20;;;37.35;;
24685;SDS011;12804;51.176;4.452;2023-02-23T04:37:49;81.63;;;37.22;;
24685;SDS011;12804;51.176;4.452;2023-02-23T04:40:15;77.38;;;36.58;;
24685;SDS011;12804;51.176;4.452;2023-02-23T04:42:41;79.97;;;36.97;;
24685;SDS011;12804;51.176;4.452;2023-02-23T04:45:07;80.85;;;37.13;;
24685;SDS011;12804;51.176;4.452;2023-02-23T04:47:33;83.13;;;37.30;;
24685;SDS011;12804;51.176;4.452;2023-02-23T04:49:59;83.68;;;37.53;;
24685;SDS011;12804;51.176;4.452;2023-02-23T04:52:25;81.43;;;37.45;;
24685;SDS011;12804;51.176;4.452;2023-02-23T04:54:51;81.78;;;36.50;;
24685;SDS011;12804;51.176;4.452;2023-02-23T04:57:16;83.55;;;36.90;;
24685;SDS011;12804;51.176;4.452;2023-02-23T04:59:42;76.32;;;35.90;;
24685;SDS011;12804;51.176;4.452;2023-02-23T05:02:08;84.30;;;36.75;;
24685;SDS011;12804;51.176;4.452;2023-02-23T05:04:34;82.88;;;37.60;;
24685;SDS011;12804;51.176;4.452;2023-02-23T05:07:00;83.53;;;37.63;;
24685;SDS011;12804;51.176;4.452;2023-02-23T05:09:28;85.75;;;38.25;;
24685;SDS011;12804;51.176;4.452;2023-02-23T05:11:54;81.63;;;37.13;;
24685;SDS011;12804;51.176;4.452;2023-02-23T05:14:20;79.93;;;36.15;;
24685;SDS011;12804;51.176;4.452;2023-02-23T05:16:47;79.45;;;36.58;;
24685;SDS011;12804;51.176;4.452;2023-02-23T05:19:13;80.55;;;37.20;;
24685;SDS011;12804;51.176;4.452;2023-02-23T05:21:38;80.25;;;36.85;;
24685;SDS011;12804;51.176;4.452;2023-02-23T05:24:05;81.57;;;37.35;;
24685;SDS011;12804;51.176;4.452;2023-02-23T05:26:32;88.22;;;38.53;;
24685;SDS011;12804;51.176;4.452;2023-02-23T05:28:58;80.32;;;38.67;;
24685;SDS011;12804;51.176;4.452;2023-02-23T05:31:24;80.93;;;38.22;;
24685;SDS011;12804;51.176;4.452;2023-02-23T05:33:50;85.05;;;37.67;;
24685;SDS011;12804;51.176;4.452;2023-02-23T05:36:17;85.10;;;38.33;;
24685;SDS011;12804;51.176;4.452;2023-02-23T05:38:44;86.25;;;38.50;;
24685;SDS011;12804;51.176;4.452;2023-02-23T05:41:12;82.40;;;36.83;;
24685;SDS011;12804;51.176;4.452;2023-02-23T05:43:41;86.35;;;38.97;;
24685;SDS011;12804;51.176;4.452;2023-02-23T05:46:10;81.10;;;37.72;;
24685;SDS011;12804;51.176;4.452;2023-02-23T05:48:39;83.20;;;37.85;;
24685;SDS011;12804;51.176;4.452;2023-02-23T05:51:06;81.28;;;37.35;;
24685;SDS011;12804;51.176;4.452;2023-02-23T05:53:33;80.18;;;37.67;;
24685;SDS011;12804;51.176;4.452;2023-02-23T05:56:00;83.35;;;36.85;;
24685;SDS011;12804;51.176;4.452;2023-02-23T05:58:26;77.53;;;36.42;;
24685;SDS011;12804;51.176;4.452;2023-02-23T06:00:52;71.88;;;34.80;;
24685;SDS011;12804;51.176;4.452;2023-02-23T06:03:18;84.07;;;37.88;;
24685;SDS011;12804;51.176;4.452;2023-02-23T06:05:52;77.65;;;37.08;;
24685;SDS011;12804;51.176;4.452;2023-02-23T06:08:19;78.38;;;36.63;;
24685;SDS011;12804;51.176;4.452;2023-02-23T06:10:45;82.15;;;36.88;;
24685;SDS011;12804;51.176;4.452;2023-02-23T06:13:11;75.50;;;36.63;;
24685;SDS011;12804;51.176;4.452;2023-02-23T06:15:38;77.45;;;36.05;;
24685;SDS011;12804;51.176;4.452;2023-02-23T06:18:04;81.82;;;37.58;;
24685;SDS011;12804;51.176;4.452;2023-02-23T06:20:31;77.05;;;37.40;;
24685;SDS011;12804;51.176;4.452;2023-02-23T06:22:57;83.72;;;37.63;;
24685;SDS011;12804;51.176;4.452;2023-02-23T06:25:23;81.90;;;37.70;;
24685;SDS011;12804;51.176;4.452;2023-02-23T06:27:49;78.82;;;37.65;;
24685;SDS011;12804;51.176;4.452;2023-02-23T06:30:15;84.80;;;37.50;;
24685;SDS011;12804;51.176;4.452;2023-02-23T06:32:41;86.18;;;38.05;;
24685;SDS011;12804;51.176;4.452;2023-02-23T06:35:11;75.18;;;34.92;;
24685;SDS011;12804;51.176;4.452;2023-02-23T06:37:37;79.00;;;36.13;;
24685;SDS011;12804;51.176;4.452;2023-02-23T06:40:03;82.10;;;38.45;;
24685;SDS011;12804;51.176;4.452;2023-02-23T06:42:30;82.75;;;36.95;;
24685;SDS011;12804;51.176;4.452;2023-02-23T06:44:55;76.78;;;36.10;;
24685;SDS011;12804;51.176;4.452;2023-02-23T06:47:21;77.10;;;35.55;;
24685;SDS011;12804;51.176;4.452;2023-02-23T06:49:47;83.03;;;37.50;;
24685;SDS011;12804;51.176;4.452;2023-02-23T06:52:13;76.65;;;36.67;;
24685;SDS011;12804;51.176;4.452;2023-02-23T06:54:39;76.60;;;35.45;;
24685;SDS011;12804;51.176;4.452;2023-02-23T06:57:06;79.85;;;36.80;;
24685;SDS011;12804;51.176;4.452;2023-02-23T06:59:33;80.60;;;37.35;;
24685;SDS011;12804;51.176;4.452;2023-02-23T07:01:59;79.25;;;35.90;;
24685;SDS011;12804;51.176;4.452;2023-02-23T07:04:25;79.43;;;37.17;;
24685;SDS011;12804;51.176;4.452;2023-02-23T07:06:51;81.93;;;37.88;;
24685;SDS011;12804;51.176;4.452;2023-02-23T07:09:17;79.50;;;36.83;;
24685;SDS011;12804;51.176;4.452;2023-02-23T07:11:43;76.75;;;35.85;;
24685;SDS011;12804;51.176;4.452;2023-02-23T07:14:09;72.72;;;34.90;;
24685;SDS011;12804;51.176;4.452;2023-02-23T07:16:36;74.88;;;34.63;;
24685;SDS011;12804;51.176;4.452;2023-02-23T07:19:03;72.18;;;34.13;;
24685;SDS011;12804;51.176;4.452;2023-02-23T07:21:30;72.80;;;35.13;;
24685;SDS011;12804;51.176;4.452;2023-02-23T07:23:57;84.88;;;38.10;;
24685;SDS011;12804;51.176;4.452;2023-02-23T07:26:24;75.40;;;36.58;;
24685;SDS011;12804;51.176;4.452;2023-02-23T07:28:50;69.75;;;34.60;;
24685;SDS011;12804;51.176;4.452;2023-02-23T07:31:16;71.85;;;35.45;;
24685;SDS011;12804;51.176;4.452;2023-02-23T07:33:43;75.22;;;38.20;;
24685;SDS011;12804;51.176;4.452;2023-02-23T07:36:09;71.00;;;36.95;;
24685;SDS011;12804;51.176;4.452;2023-02-23T07:38:35;75.80;;;37.95;;
24685;SDS011;12804;51.176;4.452;2023-02-23T07:41:01;75.22;;;37.75;;
24685;SDS011;12804;51.176;4.452;2023-02-23T07:43:28;72.15;;;37.85;;
24685;SDS011;12804;51.176;4.452;2023-02-23T07:45:57;70.95;;;36.22;;
24685;SDS011;12804;51.176;4.452;2023-02-23T07:48:25;75.18;;;38.22;;
24685;SDS011;12804;51.176;4.452;2023-02-23T07:50:51;76.80;;;37.35;;
24685;SDS011;12804;51.176;4.452;2023-02-23T07:53:17;75.68;;;37.97;;
24685;SDS011;12804;51.176;4.452;2023-02-23T07:55:43;71.53;;;36.63;;
24685;SDS011;12804;51.176;4.452;2023-02-23T07:58:09;73.95;;;38.05;;
24685;SDS011;12804;51.176;4.452;2023-02-23T08:00:37;71.82;;;37.67;;
24685;SDS011;12804;51.176;4.452;2023-02-23T08:03:04;74.05;;;37.63;;
24685;SDS011;12804;51.176;4.452;2023-02-23T08:05:31;67.00;;;36.63;;
24685;SDS011;12804;51.176;4.452;2023-02-23T08:07:57;70.70;;;36.45;;
24685;SDS011;12804;51.176;4.452;2023-02-23T08:10:24;71.80;;;38.78;;
24685;SDS011;12804;51.176;4.452;2023-02-23T08:12:50;72.50;;;37.95;;
24685;SDS011;12804;51.176;4.452;2023-02-23T08:15:16;69.68;;;36.90;;
24685;SDS011;12804;51.176;4.452;2023-02-23T08:17:42;69.10;;;37.35;;
24685;SDS011;12804;51.176;4.452;2023-02-23T08:20:08;69.70;;;36.10;;
24685;SDS011;12804;51.176;4.452;2023-02-23T08:22:35;64.55;;;34.63;;
24685;SDS011;12804;51.176;4.452;2023-02-23T08:25:01;66.57;;;35.20;;
24685;SDS011;12804;51.176;4.452;2023-02-23T08:27:32;67.57;;;36.17;;
24685;SDS011;12804;51.176;4.452;2023-02-23T08:29:59;73.05;;;37.05;;
24685;SDS011;12804;51.176;4.452;2023-02-23T08:32:28;64.75;;;35.67;;
24685;SDS011;12804;51.176;4.452;2023-02-23T08:34:59;61.15;;;33.97;;
24685;SDS011;12804;51.176;4.452;2023-02-23T08:37:27;63.90;;;35.05;;
24685;SDS011;12804;51.176;4.452;2023-02-23T08:39:54;63.22;;;34.65;;
24685;SDS011;12804;51.176;4.452;2023-02-23T08:42:20;60.85;;;34.53;;
24685;SDS011;12804;51.176;4.452;2023-02-23T08:44:46;64.85;;;33.70;;
24685;SDS011;12804;51.176;4.452;2023-02-23T08:47:15;60.53;;;34.50;;
24685;SDS011;12804;51.176;4.452;2023-02-23T08:49:46;58.00;;;33.10;;
24685;SDS011;12804;51.176;4.452;2023-02-23T08:52:12;59.28;;;33.45;;
24685;SDS011;12804;51.176;4.452;2023-02-23T08:54:38;60.67;;;33.15;;
24685;SDS011;12804;51.176;4.452;2023-02-23T08:57:04;58.60;;;32.05;;
24685;SDS011;12804;51.176;4.452;2023-02-23T08:59:29;59.08;;;32.80;;
24685;SDS011;12804;51.176;4.452;2023-02-23T09:01:55;62.72;;;33.70;;
24685;SDS011;12804;51.176;4.452;2023-02-23T09:04:21;57.30;;;32.75;;
24685;SDS011;12804;51.176;4.452;2023-02-23T09:06:47;55.80;;;30.73;;
24685;SDS011;12804;51.176;4.452;2023-02-23T09:09:14;56.17;;;32.05;;
24685;SDS011;12804;51.176;4.452;2023-02-23T09:11:41;61.35;;;32.88;;
24685;SDS011;12804;51.176;4.452;2023-02-23T09:14:07;59.55;;;32.85;;
24685;SDS011;12804;51.176;4.452;2023-02-23T09:16:33;60.85;;;34.22;;
24685;SDS011;12804;51.176;4.452;2023-02-23T09:19:03;58.75;;;33.50;;
24685;SDS011;12804;51.176;4.452;2023-02-23T09:21:29;59.28;;;32.95;;
24685;SDS011;12804;51.176;4.452;2023-02-23T09:23:58;57.63;;;32.33;;
24685;SDS011;12804;51.176;4.452;2023-02-23T09:26:24;62.80;;;35.10;;
24685;SDS011;12804;51.176;4.452;2023-02-23T09:28:52;66.97;;;34.20;;
24685;SDS011;12804;51.176;4.452;2023-02-23T09:31:19;60.60;;;33.15;;
24685;SDS011;12804;51.176;4.452;2023-02-23T09:33:47;57.83;;;32.13;;
24685;SDS011;12804;51.176;4.452;2023-02-23T09:36:14;59.33;;;32.35;;
24685;SDS011;12804;51.176;4.452;2023-02-23T09:38:45;57.75;;;32.30;;
24685;SDS011;12804;51.176;4.452;2023-02-23T09:41:37;63.42;;;35.67;;
24685;SDS011;12804;51.176;4.452;2023-02-23T09:47:04;63.15;;;35.17;;
24685;SDS011;12804;51.176;4.452;2023-02-23T09:49:54;61.65;;;32.70;;
24685;SDS011;12804;51.176;4.452;2023-02-23T09:52:24;63.17;;;33.75;;
24685;SDS011;12804;51.176;4.452;2023-02-23T09:54:58;72.00;;;34.63;;
24685;SDS011;12804;51.176;4.452;2023-02-23T09:57:36;82.15;;;36.42;;
24685;SDS011;12804;51.176;4.452;2023-02-23T10:00:38;58.25;;;32.00;;
24685;SDS011;12804;51.176;4.452;2023-02-23T10:03:10;61.78;;;32.78;;
24685;SDS011;12804;51.176;4.452;2023-02-23T10:05:51;58.28;;;32.03;;
24685;SDS011;12804;51.176;4.452;2023-02-23T10:08:34;57.38;;;31.58;;
24685;SDS011;12804;51.176;4.452;2023-02-23T10:14:15;56.88;;;29.42;;
24685;SDS011;12804;51.176;4.452;2023-02-23T10:17:02;60.25;;;30.48;;
24685;SDS011;12804;51.176;4.452;2023-02-23T10:19:43;59.60;;;31.40;;
24685;SDS011;12804;51.176;4.452;2023-02-23T10:22:15;54.90;;;29.73;;
24685;SDS011;12804;51.176;4.452;2023-02-23T10:24:44;52.15;;;28.83;;
24685;SDS011;12804;51.176;4.452;2023-02-23T10:27:26;55.93;;;30.53;;
24685;SDS011;12804;51.176;4.452;2023-02-23T10:29:57;56.33;;;31.52;;
24685;SDS011;12804;51.176;4.452;2023-02-23T10:32:34;57.17;;;29.58;;
24685;SDS011;12804;51.176;4.452;2023-02-23T10:35:09;57.80;;;32.17;;
24685;SDS011;12804;51.176;4.452;2023-02-23T10:37:37;53.63;;;31.50;;
24685;SDS011;12804;51.176;4.452;2023-02-23T10:40:03;54.42;;;30.33;;
24685;SDS011;12804;51.176;4.452;2023-02-23T10:42:30;56.08;;;31.73;;
24685;SDS011;12804;51.176;4.452;2023-02-23T10:44:58;53.00;;;30.15;;
24685;SDS011;12804;51.176;4.452;2023-02-23T10:47:25;55.67;;;31.40;;
24685;SDS011;12804;51.176;4.452;2023-02-23T10:49:55;53.00;;;31.55;;
24685;SDS011;12804;51.176;4.452;2023-02-23T10:52:25;55.05;;;31.20;;
24685;SDS011;12804;51.176;4.452;2023-02-23T10:55:19;52.97;;;31.88;;
24685;SDS011;12804;51.176;4.452;2023-02-23T10:57:49;52.75;;;31.27;;
24685;SDS011;12804;51.176;4.452;2023-02-23T11:00:25;52.17;;;30.05;;
24685;SDS011;12804;51.176;4.452;2023-02-23T11:02:55;55.33;;;31.17;;
24685;SDS011;12804;51.176;4.452;2023-02-23T11:05:36;50.65;;;30.30;;
24685;SDS011;12804;51.176;4.452;2023-02-23T11:11:45;53.35;;;32.10;;
24685;SDS011;12804;51.176;4.452;2023-02-23T11:13:41;52.08;;;29.52;;
24685;SDS011;12804;51.176;4.452;2023-02-23T11:16:12;54.10;;;30.88;;
24685;SDS011;12804;51.176;4.452;2023-02-23T11:18:40;47.83;;;29.70;;
24685;SDS011;12804;51.176;4.452;2023-02-23T11:21:25;47.70;;;30.02;;
24685;SDS011;12804;51.176;4.452;2023-02-23T11:26:27;49.90;;;29.75;;
24685;SDS011;12804;51.176;4.452;2023-02-23T11:28:58;48.38;;;30.00;;
24685;SDS011;12804;51.176;4.452;2023-02-23T11:31:32;48.33;;;29.90;;
24685;SDS011;12804;51.176;4.452;2023-02-23T11:34:03;44.60;;;28.40;;
24685;SDS011;12804;51.176;4.452;2023-02-23T11:36:31;46.47;;;29.48;;
24685;SDS011;12804;51.176;4.452;2023-02-23T11:42:02;47.40;;;28.77;;
24685;SDS011;12804;51.176;4.452;2023-02-23T11:44:50;45.00;;;28.65;;
24685;SDS011;12804;51.176;4.452;2023-02-23T11:47:27;44.63;;;27.80;;
24685;SDS011;12804;51.176;4.452;2023-02-23T11:49:53;42.20;;;27.00;;
24685;SDS011;12804;51.176;4.452;2023-02-23T11:52:21;42.90;;;27.60;;
24685;SDS011;12804;51.176;4.452;2023-02-23T11:54:53;45.08;;;27.35;;
24685;SDS011;12804;51.176;4.452;2023-02-23T11:57:23;40.60;;;26.42;;
24685;SDS011;12804;51.176;4.452;2023-02-23T11:59:57;44.72;;;27.27;;
24685;SDS011;12804;51.176;4.452;2023-02-23T12:02:26;40.90;;;26.33;;
24685;SDS011;12804;51.176;4.452;2023-02-23T12:05:04;46.17;;;27.25;;
24685;SDS011;12804;51.176;4.452;2023-02-23T12:13:24;43.40;;;26.15;;
24685;SDS011;12804;51.176;4.452;2023-02-23T12:18:37;43.03;;;25.88;;
24685;SDS011;12804;51.176;4.452;2023-02-23T12:36:12;41.40;;;26.42;;
24685;SDS011;12804;51.176;4.452;2023-02-23T12:38:23;40.60;;;26.50;;
24685;SDS011;12804;51.176;4.452;2023-02-23T12:42:03;41.35;;;27.10;;
24685;SDS011;12804;51.176;4.452;2023-02-23T12:44:03;44.60;;;26.85;;
24685;SDS011;12804;51.176;4.452;2023-02-23T12:47:15;44.13;;;28.63;;
24685;SDS011;12804;51.176;4.452;2023-02-23T12:49:46;40.65;;;25.20;;
24685;SDS011;12804;51.176;4.452;2023-02-23T12:52:24;38.17;;;23.55;;
24685;SDS011;12804;51.176;4.452;2023-02-23T12:54:54;38.10;;;22.10;;
24685;SDS011;12804;51.176;4.452;2023-02-23T12:57:22;34.42;;;22.23;;
24685;SDS011;12804;51.176;4.452;2023-02-23T13:14:35;39.05;;;21.38;;
24685;SDS011;12804;51.176;4.452;2023-02-23T13:19:45;37.13;;;20.77;;
24685;SDS011;12804;51.176;4.452;2023-02-23T13:22:36;37.60;;;20.98;;
24685;SDS011;12804;51.176;4.452;2023-02-23T13:28:11;30.83;;;18.70;;
24685;SDS011;12804;51.176;4.452;2023-02-23T13:30:46;30.15;;;17.35;;
24685;SDS011;12804;51.176;4.452;2023-02-23T13:33:14;31.13;;;16.98;;
24685;SDS011;12804;51.176;4.452;2023-02-23T13:35:51;31.20;;;17.65;;
24685;SDS011;12804;51.176;4.452;2023-02-23T13:38:30;26.85;;;16.20;;
24685;SDS011;12804;51.176;4.452;2023-02-23T13:41:14;23.30;;;15.00;;
24685;SDS011;12804;51.176;4.452;2023-02-23T13:44:32;24.52;;;15.13;;
24685;SDS011;12804;51.176;4.452;2023-02-23T13:50:06;32.50;;;15.70;;
24685;SDS011;12804;51.176;4.452;2023-02-23T13:52:40;25.48;;;15.52;;
24685;SDS011;12804;51.176;4.452;2023-02-23T13:57:55;24.40;;;15.55;;
24685;SDS011;12804;51.176;4.452;2023-02-23T14:00:30;25.63;;;14.90;;
24685;SDS011;12804;51.176;4.452;2023-02-23T14:03:01;21.10;;;14.50;;
24685;SDS011;12804;51.176;4.452;2023-02-23T14:05:29;24.50;;;14.73;;
24685;SDS011;12804;51.176;4.452;2023-02-23T14:08:05;26.77;;;15.18;;
24685;SDS011;12804;51.176;4.452;2023-02-23T14:10:36;23.63;;;14.73;;
24685;SDS011;12804;51.176;4.452;2023-02-23T14:18:33;16.65;;;12.32;;
24685;SDS011;12804;51.176;4.452;2023-02-23T14:21:30;16.60;;;12.98;;
24685;SDS011;12804;51.176;4.452;2023-02-23T14:24:15;15.57;;;12.45;;
24685;SDS011;12804;51.176;4.452;2023-02-23T14:32:52;14.73;;;11.70;;
24685;SDS011;12804;51.176;4.452;2023-02-23T14:38:00;14.60;;;11.02;;
24685;SDS011;12804;51.176;4.452;2023-02-23T14:40:32;13.15;;;10.82;;
24685;SDS011;12804;51.176;4.452;2023-02-23T14:43:04;13.60;;;11.30;;
24685;SDS011;12804;51.176;4.452;2023-02-23T14:46:12;10.60;;;9.52;;
24685;SDS011;12804;51.176;4.452;2023-02-23T14:48:44;9.82;;;8.40;;
24685;SDS011;12804;51.176;4.452;2023-02-23T14:51:36;8.32;;;7.53;;
24685;SDS011;12804;51.176;4.452;2023-02-23T14:54:22;9.93;;;8.45;;
24685;SDS011;12804;51.176;4.452;2023-02-23T14:56:50;9.85;;;8.30;;
24685;SDS011;12804;51.176;4.452;2023-02-23T14:59:20;9.13;;;7.85;;
24685;SDS011;12804;51.176;4.452;2023-02-23T15:01:47;8.90;;;7.88;;
24685;SDS011;12804;51.176;4.452;2023-02-23T15:04:19;8.98;;;7.80;;
24685;SDS011;12804;51.176;4.452;2023-02-23T15:06:51;9.82;;;8.25;;
24685;SDS011;12804;51.176;4.452;2023-02-23T15:12:02;8.95;;;7.85;;
24685;SDS011;12804;51.176;4.452;2023-02-23T15:14:37;10.20;;;8.52;;
24685;SDS011;12804;51.176;4.452;2023-02-23T15:17:04;13.30;;;9.68;;
24685;SDS011;12804;51.176;4.452;2023-02-23T15:19:33;10.93;;;8.48;;
24685;SDS011;12804;51.176;4.452;2023-02-23T15:22:01;10.32;;;8.70;;
24685;SDS011;12804;51.176;4.452;2023-02-23T15:24:47;12.25;;;9.43;;
24685;SDS011;12804;51.176;4.452;2023-02-23T15:27:17;12.90;;;9.75;;
24685;SDS011;12804;51.176;4.452;2023-02-23T15:29:49;13.15;;;10.40;;
24685;SDS011;12804;51.176;4.452;2023-02-23T15:32:21;14.23;;;9.77;;
24685;SDS011;12804;51.176;4.452;2023-02-23T15:34:52;11.95;;;9.80;;
24685;SDS011;12804;51.176;4.452;2023-02-23T15:37:28;11.88;;;9.65;;
24685;SDS011;12804;51.176;4.452;2023-02-23T15:40:03;11.23;;;9.38;;
24685;SDS011;12804;51.176;4.452;2023-02-23T15:42:35;10.88;;;9.13;;
24685;SDS011;12804;51.176;4.452;2023-02-23T15:45:18;10.80;;;8.32;;
24685;SDS011;12804;51.176;4.452;2023-02-23T15:47:50;9.80;;;8.50;;
24685;SDS011;12804;51.176;4.452;2023-02-23T15:50:21;10.02;;;8.00;;
24685;SDS011;12804;51.176;4.452;2023-02-23T15:52:52;9.55;;;7.15;;
24685;SDS011;12804;51.176;4.452;2023-02-23T15:55:29;9.93;;;7.53;;
24685;SDS011;12804;51.176;4.452;2023-02-23T15:58:00;10.23;;;7.20;;
24685;SDS011;12804;51.176;4.452;2023-02-23T16:00:41;11.13;;;7.22;;
24685;SDS011;12804;51.176;4.452;2023-02-23T16:03:22;9.63;;;6.82;;
24685;SDS011;12804;51.176;4.452;2023-02-23T16:06:05;11.77;;;7.75;;
24685;SDS011;12804;51.176;4.452;2023-02-23T16:08:33;11.63;;;7.72;;
24685;SDS011;12804;51.176;4.452;2023-02-23T16:11:17;11.85;;;7.70;;
24685;SDS011;12804;51.176;4.452;2023-02-23T16:13:43;12.48;;;8.20;;
24685;SDS011;12804;51.176;4.452;2023-02-23T16:16:11;9.30;;;6.70;;
24685;SDS011;12804;51.176;4.452;2023-02-23T16:18:44;10.55;;;7.30;;
24685;SDS011;12804;51.176;4.452;2023-02-23T16:21:24;12.30;;;7.65;;
24685;SDS011;12804;51.176;4.452;2023-02-23T16:23:51;11.20;;;6.90;;
24685;SDS011;12804;51.176;4.452;2023-02-23T16:26:40;15.63;;;7.70;;
24685;SDS011;12804;51.176;4.452;2023-02-23T16:29:24;11.43;;;7.75;;
24685;SDS011;12804;51.176;4.452;2023-02-23T16:31:59;9.80;;;7.85;;
24685;SDS011;12804;51.176;4.452;2023-02-23T16:34:31;9.82;;;7.97;;
24685;SDS011;12804;51.176;4.452;2023-02-23T16:37:03;13.45;;;7.85;;
24685;SDS011;12804;51.176;4.452;2023-02-23T16:39:49;12.40;;;7.97;;
24685;SDS011;12804;51.176;4.452;2023-02-23T16:42:36;9.07;;;7.22;;
24685;SDS011;12804;51.176;4.452;2023-02-23T16:45:03;11.95;;;7.65;;
24685;SDS011;12804;51.176;4.452;2023-02-23T16:50:01;9.85;;;7.97;;
24685;SDS011;12804;51.176;4.452;2023-02-23T16:52:37;12.88;;;8.40;;
24685;SDS011;12804;51.176;4.452;2023-02-23T16:55:03;14.30;;;8.75;;
24685;SDS011;12804;51.176;4.452;2023-02-23T16:57:30;11.88;;;8.30;;
24685;SDS011;12804;51.176;4.452;2023-02-23T17:00:03;10.93;;;8.57;;